sensor_id;sensor_type;location;lat;lon;timestamp;P1;durP1;ratioP1;P2;durP2;ratioP2
63089;SDS011;49174;43.198;27.824;2023-09-07T00:00:29;8.65;;;5.28;;
63089;SDS011;49174;43.198;27.824;2023-09-07T00:03:01;7.28;;;4.53;;
63089;SDS011;49174;43.198;27.824;2023-09-07T00:05:26;7.55;;;5.10;;
63089;SDS011;49174;43.198;27.824;2023-09-07T00:07:52;7.88;;;4.63;;
63089;SDS011;49174;43.198;27.824;2023-09-07T00:10:17;8.35;;;5.00;;
63089;SDS011;49174;43.198;27.824;2023-09-07T00:12:43;8.48;;;5.20;;
63089;SDS011;49174;43.198;27.824;2023-09-07T00:15:09;7.47;;;4.60;;
63089;SDS011;49174;43.198;27.824;2023-09-07T00:17:35;6.60;;;4.78;;
63089;SDS011;49174;43.198;27.824;2023-09-07T00:20:02;6.70;;;4.75;;
63089;SDS011;49174;43.198;27.824;2023-09-07T00:22:39;7.28;;;5.10;;
63089;SDS011;49174;43.198;27.824;2023-09-07T00:25:04;9.50;;;5.15;;
63089;SDS011;49174;43.198;27.824;2023-09-07T00:27:32;6.65;;;4.78;;
63089;SDS011;49174;43.198;27.824;2023-09-07T00:29:59;8.10;;;5.15;;
63089;SDS011;49174;43.198;27.824;2023-09-07T00:32:24;8.68;;;5.63;;
63089;SDS011;49174;43.198;27.824;2023-09-07T00:34:50;6.40;;;5.00;;
63089;SDS011;49174;43.198;27.824;2023-09-07T00:37:16;6.75;;;5.00;;
63089;SDS011;49174;43.198;27.824;2023-09-07T00:39:41;7.63;;;5.05;;
63089;SDS011;49174;43.198;27.824;2023-09-07T00:42:07;10.55;;;5.47;;
63089;SDS011;49174;43.198;27.824;2023-09-07T00:44:32;10.40;;;5.20;;
63089;SDS011;49174;43.198;27.824;2023-09-07T00:46:58;8.70;;;5.13;;
63089;SDS011;49174;43.198;27.824;2023-09-07T00:49:24;9.38;;;5.68;;
63089;SDS011;49174;43.198;27.824;2023-09-07T00:51:51;7.88;;;5.65;;
63089;SDS011;49174;43.198;27.824;2023-09-07T00:54:17;8.60;;;5.90;;
63089;SDS011;49174;43.198;27.824;2023-09-07T00:56:43;8.10;;;6.20;;
63089;SDS011;49174;43.198;27.824;2023-09-07T00:59:09;7.18;;;5.60;;
63089;SDS011;49174;43.198;27.824;2023-09-07T01:01:35;10.40;;;4.85;;
63089;SDS011;49174;43.198;27.824;2023-09-07T01:04:00;7.75;;;5.00;;
63089;SDS011;49174;43.198;27.824;2023-09-07T01:06:32;6.70;;;4.63;;
63089;SDS011;49174;43.198;27.824;2023-09-07T01:09:06;7.22;;;4.78;;
63089;SDS011;49174;43.198;27.824;2023-09-07T01:11:38;8.20;;;5.80;;
63089;SDS011;49174;43.198;27.824;2023-09-07T01:14:03;8.52;;;5.95;;
63089;SDS011;49174;43.198;27.824;2023-09-07T01:16:30;12.75;;;7.07;;
63089;SDS011;49174;43.198;27.824;2023-09-07T01:18:59;7.40;;;4.53;;
63089;SDS011;49174;43.198;27.824;2023-09-07T01:21:26;8.73;;;5.75;;
63089;SDS011;49174;43.198;27.824;2023-09-07T01:23:53;6.80;;;6.03;;
63089;SDS011;49174;43.198;27.824;2023-09-07T01:26:20;10.15;;;6.10;;
63089;SDS011;49174;43.198;27.824;2023-09-07T01:28:46;10.98;;;6.82;;
63089;SDS011;49174;43.198;27.824;2023-09-07T01:31:12;9.00;;;6.20;;
63089;SDS011;49174;43.198;27.824;2023-09-07T01:33:37;8.63;;;5.75;;
63089;SDS011;49174;43.198;27.824;2023-09-07T01:36:03;9.88;;;5.78;;
63089;SDS011;49174;43.198;27.824;2023-09-07T01:38:29;6.47;;;4.85;;
63089;SDS011;49174;43.198;27.824;2023-09-07T01:40:54;10.27;;;5.32;;
63089;SDS011;49174;43.198;27.824;2023-09-07T01:43:20;5.43;;;4.47;;
63089;SDS011;49174;43.198;27.824;2023-09-07T01:45:45;7.10;;;5.70;;
63089;SDS011;49174;43.198;27.824;2023-09-07T01:48:12;7.30;;;6.00;;
63089;SDS011;49174;43.198;27.824;2023-09-07T01:50:39;8.52;;;5.93;;
63089;SDS011;49174;43.198;27.824;2023-09-07T01:53:04;8.18;;;5.88;;
63089;SDS011;49174;43.198;27.824;2023-09-07T01:55:30;8.35;;;4.72;;
63089;SDS011;49174;43.198;27.824;2023-09-07T01:57:59;7.85;;;5.32;;
63089;SDS011;49174;43.198;27.824;2023-09-07T02:00:24;7.57;;;5.45;;
63089;SDS011;49174;43.198;27.824;2023-09-07T02:02:50;6.97;;;5.13;;
63089;SDS011;49174;43.198;27.824;2023-09-07T02:05:16;7.63;;;6.05;;
63089;SDS011;49174;43.198;27.824;2023-09-07T02:07:42;6.70;;;5.78;;
63089;SDS011;49174;43.198;27.824;2023-09-07T02:10:08;7.47;;;4.88;;
63089;SDS011;49174;43.198;27.824;2023-09-07T02:12:34;9.18;;;5.05;;
63089;SDS011;49174;43.198;27.824;2023-09-07T02:15:01;6.60;;;5.28;;
63089;SDS011;49174;43.198;27.824;2023-09-07T02:17:28;9.73;;;5.88;;
63089;SDS011;49174;43.198;27.824;2023-09-07T02:19:55;8.88;;;5.93;;
63089;SDS011;49174;43.198;27.824;2023-09-07T02:22:24;8.73;;;6.65;;
63089;SDS011;49174;43.198;27.824;2023-09-07T02:24:49;7.97;;;5.68;;
63089;SDS011;49174;43.198;27.824;2023-09-07T02:27:15;11.15;;;6.30;;
63089;SDS011;49174;43.198;27.824;2023-09-07T02:29:41;7.85;;;5.72;;
63089;SDS011;49174;43.198;27.824;2023-09-07T02:32:06;9.13;;;7.32;;
63089;SDS011;49174;43.198;27.824;2023-09-07T02:34:32;6.85;;;6.03;;
63089;SDS011;49174;43.198;27.824;2023-09-07T02:37:01;8.95;;;6.53;;
63089;SDS011;49174;43.198;27.824;2023-09-07T02:39:27;8.65;;;7.13;;
63089;SDS011;49174;43.198;27.824;2023-09-07T02:41:53;11.25;;;7.65;;
63089;SDS011;49174;43.198;27.824;2023-09-07T02:44:18;10.18;;;7.20;;
63089;SDS011;49174;43.198;27.824;2023-09-07T02:46:44;8.95;;;6.93;;
63089;SDS011;49174;43.198;27.824;2023-09-07T02:49:10;9.20;;;5.88;;
63089;SDS011;49174;43.198;27.824;2023-09-07T02:51:35;9.25;;;6.95;;
63089;SDS011;49174;43.198;27.824;2023-09-07T02:54:01;8.98;;;7.90;;
63089;SDS011;49174;43.198;27.824;2023-09-07T02:56:28;8.70;;;6.93;;
63089;SDS011;49174;43.198;27.824;2023-09-07T02:58:53;7.00;;;6.28;;
63089;SDS011;49174;43.198;27.824;2023-09-07T03:01:19;9.60;;;5.80;;
63089;SDS011;49174;43.198;27.824;2023-09-07T03:03:46;7.95;;;6.78;;
63089;SDS011;49174;43.198;27.824;2023-09-07T03:06:12;8.73;;;6.28;;
63089;SDS011;49174;43.198;27.824;2023-09-07T03:08:42;11.02;;;5.57;;
63089;SDS011;49174;43.198;27.824;2023-09-07T03:11:08;8.77;;;5.80;;
63089;SDS011;49174;43.198;27.824;2023-09-07T03:13:34;7.30;;;5.57;;
63089;SDS011;49174;43.198;27.824;2023-09-07T03:16:00;8.18;;;6.20;;
63089;SDS011;49174;43.198;27.824;2023-09-07T03:18:27;8.40;;;6.07;;
63089;SDS011;49174;43.198;27.824;2023-09-07T03:20:54;8.75;;;5.97;;
63089;SDS011;49174;43.198;27.824;2023-09-07T03:23:23;8.45;;;6.35;;
63089;SDS011;49174;43.198;27.824;2023-09-07T03:25:49;8.52;;;5.90;;
63089;SDS011;49174;43.198;27.824;2023-09-07T03:28:14;8.93;;;6.90;;
63089;SDS011;49174;43.198;27.824;2023-09-07T03:30:40;8.70;;;6.07;;
63089;SDS011;49174;43.198;27.824;2023-09-07T03:33:05;8.65;;;5.93;;
63089;SDS011;49174;43.198;27.824;2023-09-07T03:35:31;8.45;;;6.18;;
63089;SDS011;49174;43.198;27.824;2023-09-07T03:37:57;9.80;;;6.72;;
63089;SDS011;49174;43.198;27.824;2023-09-07T03:40:23;9.77;;;6.28;;
63089;SDS011;49174;43.198;27.824;2023-09-07T03:42:48;9.90;;;6.00;;
63089;SDS011;49174;43.198;27.824;2023-09-07T03:45:15;8.88;;;5.78;;
63089;SDS011;49174;43.198;27.824;2023-09-07T03:47:40;10.18;;;7.78;;
63089;SDS011;49174;43.198;27.824;2023-09-07T03:50:06;7.82;;;6.38;;
63089;SDS011;49174;43.198;27.824;2023-09-07T03:52:32;11.05;;;6.82;;
63089;SDS011;49174;43.198;27.824;2023-09-07T03:54:59;8.32;;;6.70;;
63089;SDS011;49174;43.198;27.824;2023-09-07T03:57:25;9.32;;;7.38;;
63089;SDS011;49174;43.198;27.824;2023-09-07T03:59:52;9.30;;;6.32;;
63089;SDS011;49174;43.198;27.824;2023-09-07T04:02:20;10.27;;;7.32;;
63089;SDS011;49174;43.198;27.824;2023-09-07T04:04:50;8.60;;;7.22;;
63089;SDS011;49174;43.198;27.824;2023-09-07T04:07:16;7.35;;;6.05;;
63089;SDS011;49174;43.198;27.824;2023-09-07T04:09:42;10.85;;;7.38;;
63089;SDS011;49174;43.198;27.824;2023-09-07T04:12:08;12.43;;;7.43;;
63089;SDS011;49174;43.198;27.824;2023-09-07T04:14:34;12.25;;;7.38;;
63089;SDS011;49174;43.198;27.824;2023-09-07T04:17:00;11.23;;;6.85;;
63089;SDS011;49174;43.198;27.824;2023-09-07T04:19:26;8.88;;;7.00;;
63089;SDS011;49174;43.198;27.824;2023-09-07T04:21:51;10.75;;;7.35;;
63089;SDS011;49174;43.198;27.824;2023-09-07T04:24:17;10.45;;;6.65;;
63089;SDS011;49174;43.198;27.824;2023-09-07T04:26:42;8.68;;;7.68;;
63089;SDS011;49174;43.198;27.824;2023-09-07T04:29:09;8.63;;;7.28;;
63089;SDS011;49174;43.198;27.824;2023-09-07T04:31:36;13.18;;;10.20;;
63089;SDS011;49174;43.198;27.824;2023-09-07T04:34:02;9.85;;;8.27;;
63089;SDS011;49174;43.198;27.824;2023-09-07T04:36:28;12.27;;;8.32;;
63089;SDS011;49174;43.198;27.824;2023-09-07T04:38:53;9.95;;;6.65;;
63089;SDS011;49174;43.198;27.824;2023-09-07T04:41:19;9.68;;;6.13;;
63089;SDS011;49174;43.198;27.824;2023-09-07T04:43:46;7.30;;;5.95;;
63089;SDS011;49174;43.198;27.824;2023-09-07T04:46:12;8.32;;;5.45;;
63089;SDS011;49174;43.198;27.824;2023-09-07T04:48:38;10.27;;;6.03;;
63089;SDS011;49174;43.198;27.824;2023-09-07T04:51:09;34.72;;;17.45;;
63089;SDS011;49174;43.198;27.824;2023-09-07T04:53:37;36.70;;;18.52;;
63089;SDS011;49174;43.198;27.824;2023-09-07T04:56:04;21.80;;;12.32;;
63089;SDS011;49174;43.198;27.824;2023-09-07T04:58:30;13.68;;;9.73;;
63089;SDS011;49174;43.198;27.824;2023-09-07T05:01:02;12.85;;;7.53;;
63089;SDS011;49174;43.198;27.824;2023-09-07T05:03:33;14.32;;;8.65;;
63089;SDS011;49174;43.198;27.824;2023-09-07T05:05:59;9.52;;;4.72;;
63089;SDS011;49174;43.198;27.824;2023-09-07T05:08:25;7.45;;;4.72;;
63089;SDS011;49174;43.198;27.824;2023-09-07T05:11:00;7.03;;;5.03;;
63089;SDS011;49174;43.198;27.824;2023-09-07T05:13:27;6.82;;;3.80;;
63089;SDS011;49174;43.198;27.824;2023-09-07T05:15:54;8.15;;;4.10;;
63089;SDS011;49174;43.198;27.824;2023-09-07T05:18:20;8.48;;;4.47;;
63089;SDS011;49174;43.198;27.824;2023-09-07T05:20:47;8.07;;;4.03;;
63089;SDS011;49174;43.198;27.824;2023-09-07T05:23:14;9.32;;;4.05;;
63089;SDS011;49174;43.198;27.824;2023-09-07T05:25:44;5.10;;;3.55;;
63089;SDS011;49174;43.198;27.824;2023-09-07T05:28:15;6.65;;;3.90;;
63089;SDS011;49174;43.198;27.824;2023-09-07T05:30:41;5.47;;;3.33;;
63089;SDS011;49174;43.198;27.824;2023-09-07T05:33:11;6.78;;;3.92;;
63089;SDS011;49174;43.198;27.824;2023-09-07T05:35:37;6.07;;;4.22;;
63089;SDS011;49174;43.198;27.824;2023-09-07T05:38:04;9.07;;;4.30;;
63089;SDS011;49174;43.198;27.824;2023-09-07T05:40:33;5.60;;;3.25;;
63089;SDS011;49174;43.198;27.824;2023-09-07T05:43:02;7.93;;;3.92;;
63089;SDS011;49174;43.198;27.824;2023-09-07T05:45:29;5.28;;;3.70;;
63089;SDS011;49174;43.198;27.824;2023-09-07T05:48:05;10.57;;;4.10;;
63089;SDS011;49174;43.198;27.824;2023-09-07T05:50:33;6.60;;;3.85;;
63089;SDS011;49174;43.198;27.824;2023-09-07T05:53:00;6.93;;;4.47;;
63089;SDS011;49174;43.198;27.824;2023-09-07T05:55:25;4.68;;;3.42;;
63089;SDS011;49174;43.198;27.824;2023-09-07T05:57:54;5.07;;;3.40;;
63089;SDS011;49174;43.198;27.824;2023-09-07T06:00:20;9.48;;;3.55;;
63089;SDS011;49174;43.198;27.824;2023-09-07T06:02:45;7.20;;;4.28;;
63089;SDS011;49174;43.198;27.824;2023-09-07T06:05:12;12.85;;;7.68;;
63089;SDS011;49174;43.198;27.824;2023-09-07T06:07:38;8.50;;;3.67;;
63089;SDS011;49174;43.198;27.824;2023-09-07T06:10:04;6.10;;;3.35;;
63089;SDS011;49174;43.198;27.824;2023-09-07T06:12:31;9.75;;;3.60;;
63089;SDS011;49174;43.198;27.824;2023-09-07T06:14:57;6.32;;;3.83;;
63089;SDS011;49174;43.198;27.824;2023-09-07T06:17:22;7.22;;;3.42;;
63089;SDS011;49174;43.198;27.824;2023-09-07T06:19:48;6.47;;;3.95;;
63089;SDS011;49174;43.198;27.824;2023-09-07T06:22:13;7.07;;;3.60;;
63089;SDS011;49174;43.198;27.824;2023-09-07T06:24:39;4.68;;;3.17;;
63089;SDS011;49174;43.198;27.824;2023-09-07T06:27:05;6.75;;;3.92;;
63089;SDS011;49174;43.198;27.824;2023-09-07T06:29:31;5.53;;;3.80;;
63089;SDS011;49174;43.198;27.824;2023-09-07T06:31:56;5.70;;;3.72;;
63089;SDS011;49174;43.198;27.824;2023-09-07T06:34:23;6.57;;;3.55;;
63089;SDS011;49174;43.198;27.824;2023-09-07T06:36:49;5.50;;;3.30;;
63089;SDS011;49174;43.198;27.824;2023-09-07T06:39:14;5.93;;;3.38;;
63089;SDS011;49174;43.198;27.824;2023-09-07T06:41:40;8.40;;;3.35;;
63089;SDS011;49174;43.198;27.824;2023-09-07T06:44:05;4.78;;;3.75;;
63089;SDS011;49174;43.198;27.824;2023-09-07T06:46:31;7.35;;;3.58;;
63089;SDS011;49174;43.198;27.824;2023-09-07T06:48:56;5.32;;;3.42;;
63089;SDS011;49174;43.198;27.824;2023-09-07T06:51:22;8.48;;;3.60;;
63089;SDS011;49174;43.198;27.824;2023-09-07T06:53:48;6.18;;;3.17;;
63089;SDS011;49174;43.198;27.824;2023-09-07T06:56:15;4.80;;;3.40;;
63089;SDS011;49174;43.198;27.824;2023-09-07T06:58:41;5.32;;;2.97;;
63089;SDS011;49174;43.198;27.824;2023-09-07T07:01:07;5.65;;;3.13;;
63089;SDS011;49174;43.198;27.824;2023-09-07T07:03:32;5.88;;;3.10;;
63089;SDS011;49174;43.198;27.824;2023-09-07T07:05:59;9.93;;;3.33;;
63089;SDS011;49174;43.198;27.824;2023-09-07T07:08:25;5.55;;;3.65;;
63089;SDS011;49174;43.198;27.824;2023-09-07T07:10:50;4.95;;;3.30;;
63089;SDS011;49174;43.198;27.824;2023-09-07T07:13:17;7.50;;;3.67;;
63089;SDS011;49174;43.198;27.824;2023-09-07T07:15:42;10.52;;;3.30;;
63089;SDS011;49174;43.198;27.824;2023-09-07T07:18:08;6.40;;;3.53;;
63089;SDS011;49174;43.198;27.824;2023-09-07T07:20:40;4.97;;;2.90;;
63089;SDS011;49174;43.198;27.824;2023-09-07T07:23:06;5.18;;;3.42;;
63089;SDS011;49174;43.198;27.824;2023-09-07T07:25:32;8.15;;;3.25;;
63089;SDS011;49174;43.198;27.824;2023-09-07T07:27:59;5.00;;;3.10;;
63089;SDS011;49174;43.198;27.824;2023-09-07T07:30:28;6.25;;;3.15;;
63089;SDS011;49174;43.198;27.824;2023-09-07T07:32:55;5.07;;;2.63;;
63089;SDS011;49174;43.198;27.824;2023-09-07T07:35:21;8.40;;;3.70;;
63089;SDS011;49174;43.198;27.824;2023-09-07T07:37:46;5.82;;;3.85;;
63089;SDS011;49174;43.198;27.824;2023-09-07T07:40:12;9.23;;;3.90;;
63089;SDS011;49174;43.198;27.824;2023-09-07T07:42:37;4.55;;;2.95;;
63089;SDS011;49174;43.198;27.824;2023-09-07T07:45:03;5.55;;;3.45;;
63089;SDS011;49174;43.198;27.824;2023-09-07T07:47:29;5.80;;;2.80;;
63089;SDS011;49174;43.198;27.824;2023-09-07T07:49:54;4.53;;;2.70;;
63089;SDS011;49174;43.198;27.824;2023-09-07T07:52:20;7.75;;;3.50;;
63089;SDS011;49174;43.198;27.824;2023-09-07T07:54:47;3.15;;;2.65;;
63089;SDS011;49174;43.198;27.824;2023-09-07T07:57:12;6.68;;;4.10;;
63089;SDS011;49174;43.198;27.824;2023-09-07T07:59:38;7.72;;;3.08;;
63089;SDS011;49174;43.198;27.824;2023-09-07T08:02:03;5.60;;;2.90;;
63089;SDS011;49174;43.198;27.824;2023-09-07T08:04:31;7.13;;;2.88;;
63089;SDS011;49174;43.198;27.824;2023-09-07T08:06:57;6.88;;;3.42;;
63089;SDS011;49174;43.198;27.824;2023-09-07T08:09:29;8.00;;;3.28;;
63089;SDS011;49174;43.198;27.824;2023-09-07T08:11:54;5.38;;;3.25;;
63089;SDS011;49174;43.198;27.824;2023-09-07T08:14:21;4.32;;;3.30;;
63089;SDS011;49174;43.198;27.824;2023-09-07T08:16:47;6.53;;;3.40;;
63089;SDS011;49174;43.198;27.824;2023-09-07T08:19:13;7.30;;;3.30;;
63089;SDS011;49174;43.198;27.824;2023-09-07T08:21:39;8.63;;;3.53;;
63089;SDS011;49174;43.198;27.824;2023-09-07T08:24:07;8.32;;;3.45;;
63089;SDS011;49174;43.198;27.824;2023-09-07T08:26:37;6.18;;;3.38;;
63089;SDS011;49174;43.198;27.824;2023-09-07T08:29:03;4.68;;;3.30;;
63089;SDS011;49174;43.198;27.824;2023-09-07T08:31:34;5.53;;;3.28;;
63089;SDS011;49174;43.198;27.824;2023-09-07T08:34:06;4.28;;;3.40;;
63089;SDS011;49174;43.198;27.824;2023-09-07T08:36:34;9.13;;;3.92;;
63089;SDS011;49174;43.198;27.824;2023-09-07T08:39:06;4.93;;;3.13;;
63089;SDS011;49174;43.198;27.824;2023-09-07T08:41:38;4.25;;;2.97;;
63089;SDS011;49174;43.198;27.824;2023-09-07T08:44:09;5.45;;;3.47;;
63089;SDS011;49174;43.198;27.824;2023-09-07T08:46:36;8.13;;;3.38;;
63089;SDS011;49174;43.198;27.824;2023-09-07T08:49:03;8.10;;;3.50;;
63089;SDS011;49174;43.198;27.824;2023-09-07T08:51:29;5.13;;;3.88;;
63089;SDS011;49174;43.198;27.824;2023-09-07T08:53:57;8.02;;;3.70;;
63089;SDS011;49174;43.198;27.824;2023-09-07T08:56:23;5.63;;;3.35;;
63089;SDS011;49174;43.198;27.824;2023-09-07T08:58:49;5.50;;;3.55;;
63089;SDS011;49174;43.198;27.824;2023-09-07T09:01:15;4.57;;;3.10;;
63089;SDS011;49174;43.198;27.824;2023-09-07T09:03:42;11.00;;;3.70;;
63089;SDS011;49174;43.198;27.824;2023-09-07T09:06:08;5.05;;;3.30;;
63089;SDS011;49174;43.198;27.824;2023-09-07T09:08:45;6.03;;;3.33;;
63089;SDS011;49174;43.198;27.824;2023-09-07T09:11:15;6.72;;;3.30;;
63089;SDS011;49174;43.198;27.824;2023-09-07T09:13:43;4.28;;;3.20;;
63089;SDS011;49174;43.198;27.824;2023-09-07T09:16:09;5.57;;;3.22;;
63089;SDS011;49174;43.198;27.824;2023-09-07T09:18:36;5.05;;;3.45;;
63089;SDS011;49174;43.198;27.824;2023-09-07T09:21:01;8.38;;;3.58;;
63089;SDS011;49174;43.198;27.824;2023-09-07T09:23:46;4.10;;;3.38;;
63089;SDS011;49174;43.198;27.824;2023-09-07T09:26:12;8.48;;;3.00;;
63089;SDS011;49174;43.198;27.824;2023-09-07T09:28:38;8.35;;;3.08;;
63089;SDS011;49174;43.198;27.824;2023-09-07T09:31:04;5.20;;;3.45;;
63089;SDS011;49174;43.198;27.824;2023-09-07T09:33:30;5.78;;;3.13;;
63089;SDS011;49174;43.198;27.824;2023-09-07T09:35:56;4.47;;;3.15;;
63089;SDS011;49174;43.198;27.824;2023-09-07T09:38:23;6.20;;;2.92;;
63089;SDS011;49174;43.198;27.824;2023-09-07T09:40:49;4.68;;;3.08;;
63089;SDS011;49174;43.198;27.824;2023-09-07T09:43:16;9.38;;;3.50;;
63089;SDS011;49174;43.198;27.824;2023-09-07T09:45:41;9.70;;;3.20;;
63089;SDS011;49174;43.198;27.824;2023-09-07T09:48:07;9.88;;;3.70;;
63089;SDS011;49174;43.198;27.824;2023-09-07T09:50:33;6.03;;;3.78;;
63089;SDS011;49174;43.198;27.824;2023-09-07T09:53:06;8.80;;;3.03;;
63089;SDS011;49174;43.198;27.824;2023-09-07T09:55:32;4.82;;;3.40;;
63089;SDS011;49174;43.198;27.824;2023-09-07T09:57:59;6.45;;;3.70;;
63089;SDS011;49174;43.198;27.824;2023-09-07T10:00:24;8.30;;;3.40;;
63089;SDS011;49174;43.198;27.824;2023-09-07T10:05:31;8.40;;;3.60;;
63089;SDS011;49174;43.198;27.824;2023-09-07T10:08:02;5.70;;;3.33;;
63089;SDS011;49174;43.198;27.824;2023-09-07T10:10:33;6.95;;;3.05;;
63089;SDS011;49174;43.198;27.824;2023-09-07T10:13:03;6.65;;;3.47;;
63089;SDS011;49174;43.198;27.824;2023-09-07T10:15:30;5.72;;;3.88;;
63089;SDS011;49174;43.198;27.824;2023-09-07T10:18:06;5.32;;;3.10;;
63089;SDS011;49174;43.198;27.824;2023-09-07T10:20:50;5.57;;;3.83;;
63089;SDS011;49174;43.198;27.824;2023-09-07T10:23:37;6.32;;;3.42;;
63089;SDS011;49174;43.198;27.824;2023-09-07T10:26:05;6.03;;;3.42;;
63089;SDS011;49174;43.198;27.824;2023-09-07T10:28:35;7.90;;;3.15;;
63089;SDS011;49174;43.198;27.824;2023-09-07T10:31:04;5.80;;;3.55;;
63089;SDS011;49174;43.198;27.824;2023-09-07T10:33:32;7.72;;;3.55;;
63089;SDS011;49174;43.198;27.824;2023-09-07T10:35:58;5.45;;;3.58;;
63089;SDS011;49174;43.198;27.824;2023-09-07T10:38:24;5.13;;;3.40;;
63089;SDS011;49174;43.198;27.824;2023-09-07T10:40:57;3.90;;;3.05;;
63089;SDS011;49174;43.198;27.824;2023-09-07T10:43:27;7.60;;;3.58;;
63089;SDS011;49174;43.198;27.824;2023-09-07T10:45:57;5.57;;;3.38;;
63089;SDS011;49174;43.198;27.824;2023-09-07T10:48:25;7.10;;;3.63;;
63089;SDS011;49174;43.198;27.824;2023-09-07T10:50:53;4.63;;;3.42;;
63089;SDS011;49174;43.198;27.824;2023-09-07T10:53:27;5.65;;;3.05;;
63089;SDS011;49174;43.198;27.824;2023-09-07T10:55:54;8.18;;;3.40;;
63089;SDS011;49174;43.198;27.824;2023-09-07T10:58:25;6.55;;;3.33;;
63089;SDS011;49174;43.198;27.824;2023-09-07T11:00:53;6.57;;;3.72;;
63089;SDS011;49174;43.198;27.824;2023-09-07T11:03:19;4.45;;;3.30;;
63089;SDS011;49174;43.198;27.824;2023-09-07T11:05:44;5.22;;;3.22;;
63089;SDS011;49174;43.198;27.824;2023-09-07T11:08:10;5.50;;;3.63;;
63089;SDS011;49174;43.198;27.824;2023-09-07T11:10:36;9.63;;;3.15;;
63089;SDS011;49174;43.198;27.824;2023-09-07T11:13:05;4.78;;;3.25;;
63089;SDS011;49174;43.198;27.824;2023-09-07T11:15:31;7.03;;;3.10;;
63089;SDS011;49174;43.198;27.824;2023-09-07T11:18:03;5.28;;;3.47;;
63089;SDS011;49174;43.198;27.824;2023-09-07T11:20:32;6.82;;;3.40;;
63089;SDS011;49174;43.198;27.824;2023-09-07T11:23:00;5.72;;;3.50;;
63089;SDS011;49174;43.198;27.824;2023-09-07T11:25:26;4.70;;;3.47;;
63089;SDS011;49174;43.198;27.824;2023-09-07T11:27:52;6.25;;;3.70;;
63089;SDS011;49174;43.198;27.824;2023-09-07T11:30:20;5.13;;;3.22;;
63089;SDS011;49174;43.198;27.824;2023-09-07T11:32:47;10.27;;;3.50;;
63089;SDS011;49174;43.198;27.824;2023-09-07T11:35:12;6.22;;;3.63;;
63089;SDS011;49174;43.198;27.824;2023-09-07T11:37:38;4.45;;;2.92;;
63089;SDS011;49174;43.198;27.824;2023-09-07T11:40:05;6.00;;;2.90;;
63089;SDS011;49174;43.198;27.824;2023-09-07T11:42:37;4.70;;;2.58;;
63089;SDS011;49174;43.198;27.824;2023-09-07T11:45:05;5.13;;;3.47;;
63089;SDS011;49174;43.198;27.824;2023-09-07T11:47:31;6.38;;;3.33;;
63089;SDS011;49174;43.198;27.824;2023-09-07T11:49:57;7.07;;;3.75;;
63089;SDS011;49174;43.198;27.824;2023-09-07T11:52:23;6.22;;;2.83;;
63089;SDS011;49174;43.198;27.824;2023-09-07T11:54:48;7.72;;;2.95;;
63089;SDS011;49174;43.198;27.824;2023-09-07T11:57:14;9.00;;;3.88;;
63089;SDS011;49174;43.198;27.824;2023-09-07T11:59:41;7.57;;;3.28;;
63089;SDS011;49174;43.198;27.824;2023-09-07T12:02:06;5.05;;;2.75;;
63089;SDS011;49174;43.198;27.824;2023-09-07T12:04:33;7.32;;;2.88;;
63089;SDS011;49174;43.198;27.824;2023-09-07T12:07:01;5.32;;;3.20;;
63089;SDS011;49174;43.198;27.824;2023-09-07T12:09:27;4.25;;;3.00;;
63089;SDS011;49174;43.198;27.824;2023-09-07T12:11:53;8.55;;;3.22;;
63089;SDS011;49174;43.198;27.824;2023-09-07T12:14:19;6.60;;;3.42;;
63089;SDS011;49174;43.198;27.824;2023-09-07T12:16:44;4.65;;;2.70;;
63089;SDS011;49174;43.198;27.824;2023-09-07T12:19:10;7.85;;;2.80;;
63089;SDS011;49174;43.198;27.824;2023-09-07T12:21:35;6.38;;;2.95;;
63089;SDS011;49174;43.198;27.824;2023-09-07T12:24:01;8.95;;;3.28;;
63089;SDS011;49174;43.198;27.824;2023-09-07T12:26:26;6.60;;;3.80;;
63089;SDS011;49174;43.198;27.824;2023-09-07T12:28:52;6.30;;;2.88;;
63089;SDS011;49174;43.198;27.824;2023-09-07T12:31:18;6.35;;;3.00;;
63089;SDS011;49174;43.198;27.824;2023-09-07T12:33:43;10.68;;;3.10;;
63089;SDS011;49174;43.198;27.824;2023-09-07T12:36:09;4.57;;;3.15;;
63089;SDS011;49174;43.198;27.824;2023-09-07T12:38:35;5.00;;;3.25;;
63089;SDS011;49174;43.198;27.824;2023-09-07T12:41:02;7.03;;;3.00;;
63089;SDS011;49174;43.198;27.824;2023-09-07T12:43:28;9.07;;;3.03;;
63089;SDS011;49174;43.198;27.824;2023-09-07T12:45:54;6.82;;;3.17;;
63089;SDS011;49174;43.198;27.824;2023-09-07T12:48:20;7.63;;;3.67;;
63089;SDS011;49174;43.198;27.824;2023-09-07T12:50:46;10.77;;;3.00;;
63089;SDS011;49174;43.198;27.824;2023-09-07T12:53:11;5.85;;;3.15;;
63089;SDS011;49174;43.198;27.824;2023-09-07T12:55:37;9.57;;;3.50;;
63089;SDS011;49174;43.198;27.824;2023-09-07T12:58:03;6.68;;;3.58;;
63089;SDS011;49174;43.198;27.824;2023-09-07T13:00:35;4.72;;;2.90;;
63089;SDS011;49174;43.198;27.824;2023-09-07T13:03:01;7.18;;;2.97;;
63089;SDS011;49174;43.198;27.824;2023-09-07T13:05:27;6.22;;;3.42;;
63089;SDS011;49174;43.198;27.824;2023-09-07T13:07:59;6.45;;;3.20;;
63089;SDS011;49174;43.198;27.824;2023-09-07T13:10:27;5.30;;;3.78;;
63089;SDS011;49174;43.198;27.824;2023-09-07T13:12:53;4.75;;;2.90;;
63089;SDS011;49174;43.198;27.824;2023-09-07T13:15:18;7.70;;;3.55;;
63089;SDS011;49174;43.198;27.824;2023-09-07T13:17:44;12.85;;;3.75;;
63089;SDS011;49174;43.198;27.824;2023-09-07T13:20:09;5.57;;;2.58;;
63089;SDS011;49174;43.198;27.824;2023-09-07T13:22:37;4.82;;;3.10;;
63089;SDS011;49174;43.198;27.824;2023-09-07T13:25:03;7.57;;;3.28;;
63089;SDS011;49174;43.198;27.824;2023-09-07T13:27:30;5.70;;;3.22;;
63089;SDS011;49174;43.198;27.824;2023-09-07T13:29:57;4.53;;;2.72;;
63089;SDS011;49174;43.198;27.824;2023-09-07T13:32:22;7.15;;;3.20;;
63089;SDS011;49174;43.198;27.824;2023-09-07T13:34:50;9.85;;;3.15;;
63089;SDS011;49174;43.198;27.824;2023-09-07T13:37:15;8.02;;;2.95;;
63089;SDS011;49174;43.198;27.824;2023-09-07T13:39:41;6.85;;;2.60;;
63089;SDS011;49174;43.198;27.824;2023-09-07T13:42:06;12.32;;;3.17;;
63089;SDS011;49174;43.198;27.824;2023-09-07T13:44:32;6.63;;;2.25;;
63089;SDS011;49174;43.198;27.824;2023-09-07T13:46:57;5.93;;;2.67;;
63089;SDS011;49174;43.198;27.824;2023-09-07T13:49:23;5.18;;;2.95;;
63089;SDS011;49174;43.198;27.824;2023-09-07T13:51:48;4.05;;;2.30;;
63089;SDS011;49174;43.198;27.824;2023-09-07T13:54:14;4.28;;;2.58;;
63089;SDS011;49174;43.198;27.824;2023-09-07T13:56:42;4.25;;;2.75;;
63089;SDS011;49174;43.198;27.824;2023-09-07T13:59:10;6.10;;;2.58;;
63089;SDS011;49174;43.198;27.824;2023-09-07T14:01:35;5.68;;;2.80;;
63089;SDS011;49174;43.198;27.824;2023-09-07T14:04:02;4.80;;;2.80;;
63089;SDS011;49174;43.198;27.824;2023-09-07T14:06:29;4.13;;;2.65;;
63089;SDS011;49174;43.198;27.824;2023-09-07T14:08:55;5.35;;;2.85;;
63089;SDS011;49174;43.198;27.824;2023-09-07T14:11:20;4.50;;;2.78;;
63089;SDS011;49174;43.198;27.824;2023-09-07T14:13:47;6.30;;;2.78;;
63089;SDS011;49174;43.198;27.824;2023-09-07T14:16:17;5.15;;;2.67;;
63089;SDS011;49174;43.198;27.824;2023-09-07T14:18:48;6.50;;;2.78;;
63089;SDS011;49174;43.198;27.824;2023-09-07T14:21:15;6.32;;;2.65;;
63089;SDS011;49174;43.198;27.824;2023-09-07T14:23:42;4.60;;;2.58;;
63089;SDS011;49174;43.198;27.824;2023-09-07T14:26:10;5.32;;;3.10;;
63089;SDS011;49174;43.198;27.824;2023-09-07T14:28:36;4.35;;;2.80;;
63089;SDS011;49174;43.198;27.824;2023-09-07T14:31:03;4.50;;;2.58;;
63089;SDS011;49174;43.198;27.824;2023-09-07T14:33:31;4.00;;;2.47;;